sensor_id;sensor_type;location;lat;lon;timestamp;pressure;altitude;pressure_sealevel;temperature;humidity
49611;BME280;35515;48.766;9.176;2022-08-05T00:00:09;97895.63;;;26.53;49.13
49611;BME280;35515;48.766;9.176;2022-08-05T00:02:37;97893.03;;;26.39;49.62
49611;BME280;35515;48.766;9.176;2022-08-05T00:05:05;97888.91;;;26.28;50.16
49611;BME280;35515;48.766;9.176;2022-08-05T00:07:31;97887.63;;;26.34;49.83
49611;BME280;35515;48.766;9.176;2022-08-05T00:09:58;97903.28;;;26.30;49.85
49611;BME280;35515;48.766;9.176;2022-08-05T00:12:25;97897.56;;;26.26;49.47
49611;BME280;35515;48.766;9.176;2022-08-05T00:14:51;97904.75;;;26.36;48.91
49611;BME280;35515;48.766;9.176;2022-08-05T00:17:18;97906.38;;;26.28;48.89
49611;BME280;35515;48.766;9.176;2022-08-05T00:19:46;97904.75;;;26.36;48.69
49611;BME280;35515;48.766;9.176;2022-08-05T00:22:12;97908.53;;;26.31;49.06
49611;BME280;35515;48.766;9.176;2022-08-05T00:24:39;97908.66;;;26.26;48.93
49611;BME280;35515;48.766;9.176;2022-08-05T00:27:06;97904.56;;;26.24;48.99
49611;BME280;35515;48.766;9.176;2022-08-05T00:29:32;97895.88;;;26.08;49.34
49611;BME280;35515;48.766;9.176;2022-08-05T00:31:59;97898.84;;;26.11;49.83
49611;BME280;35515;48.766;9.176;2022-08-05T00:34:26;97903.22;;;26.12;50.14
49611;BME280;35515;48.766;9.176;2022-08-05T00:36:54;97911.06;;;26.10;49.92
49611;BME280;35515;48.766;9.176;2022-08-05T00:39:20;97908.63;;;26.09;49.51
49611;BME280;35515;48.766;9.176;2022-08-05T00:41:47;97923.50;;;26.13;48.97
49611;BME280;35515;48.766;9.176;2022-08-05T00:44:14;97926.75;;;26.06;49.46
49611;BME280;35515;48.766;9.176;2022-08-05T00:46:40;97926.09;;;26.09;48.80
49611;BME280;35515;48.766;9.176;2022-08-05T00:49:07;97937.94;;;26.01;49.50
49611;BME280;35515;48.766;9.176;2022-08-05T00:51:33;97937.56;;;25.94;49.10
49611;BME280;35515;48.766;9.176;2022-08-05T00:54:02;97938.75;;;25.93;49.74
49611;BME280;35515;48.766;9.176;2022-08-05T00:56:29;97951.63;;;25.89;49.83
49611;BME280;35515;48.766;9.176;2022-08-05T00:58:55;97956.66;;;25.86;50.11
49611;BME280;35515;48.766;9.176;2022-08-05T01:01:22;97966.94;;;25.86;50.36
49611;BME280;35515;48.766;9.176;2022-08-05T01:03:49;97977.94;;;26.00;49.64
49611;BME280;35515;48.766;9.176;2022-08-05T01:06:16;97978.84;;;25.86;49.60
49611;BME280;35515;48.766;9.176;2022-08-05T01:08:42;97987.97;;;25.87;45.96
49611;BME280;35515;48.766;9.176;2022-08-05T01:11:14;97989.25;;;26.03;44.95
49611;BME280;35515;48.766;9.176;2022-08-05T01:13:47;97992.13;;;26.30;44.61
49611;BME280;35515;48.766;9.176;2022-08-05T01:16:29;97987.44;;;26.39;44.03
49611;BME280;35515;48.766;9.176;2022-08-05T01:19:01;97993.34;;;26.55;43.21
49611;BME280;35515;48.766;9.176;2022-08-05T01:21:51;98001.50;;;26.60;43.13
49611;BME280;35515;48.766;9.176;2022-08-05T01:24:34;97993.50;;;26.59;43.61
49611;BME280;35515;48.766;9.176;2022-08-05T01:27:12;98000.72;;;26.60;43.70
49611;BME280;35515;48.766;9.176;2022-08-05T01:29:48;98008.53;;;26.58;43.80
49611;BME280;35515;48.766;9.176;2022-08-05T01:32:15;98008.28;;;26.85;43.65
49611;BME280;35515;48.766;9.176;2022-08-05T01:34:47;98016.13;;;26.75;44.19
49611;BME280;35515;48.766;9.176;2022-08-05T01:37:18;98015.22;;;26.48;44.78
49611;BME280;35515;48.766;9.176;2022-08-05T01:39:48;98026.00;;;26.41;44.73
49611;BME280;35515;48.766;9.176;2022-08-05T01:42:18;98023.16;;;26.32;45.60
49611;BME280;35515;48.766;9.176;2022-08-05T01:44:47;98033.00;;;26.38;45.63
49611;BME280;35515;48.766;9.176;2022-08-05T01:47:16;98041.28;;;26.29;45.73
49611;BME280;35515;48.766;9.176;2022-08-05T01:49:45;98037.44;;;26.48;45.66
49611;BME280;35515;48.766;9.176;2022-08-05T01:52:16;98044.09;;;26.38;46.39
49611;BME280;35515;48.766;9.176;2022-08-05T01:54:45;98045.75;;;26.39;46.02
49611;BME280;35515;48.766;9.176;2022-08-05T01:57:18;98039.16;;;26.35;46.37
49611;BME280;35515;48.766;9.176;2022-08-05T01:59:48;98045.09;;;26.42;46.36
49611;BME280;35515;48.766;9.176;2022-08-05T02:02:19;98041.81;;;26.40;46.68
49611;BME280;35515;48.766;9.176;2022-08-05T02:04:47;98039.34;;;26.30;47.31
49611;BME280;35515;48.766;9.176;2022-08-05T02:07:15;98032.81;;;26.34;46.78
49611;BME280;35515;48.766;9.176;2022-08-05T02:09:42;98031.00;;;26.30;47.23
49611;BME280;35515;48.766;9.176;2022-08-05T02:12:17;98033.09;;;26.24;47.67
49611;BME280;35515;48.766;9.176;2022-08-05T02:14:51;98034.19;;;26.14;47.57
49611;BME280;35515;48.766;9.176;2022-08-05T02:17:24;98030.09;;;26.12;47.79
49611;BME280;35515;48.766;9.176;2022-08-05T02:19:55;98024.38;;;26.08;48.17
49611;BME280;35515;48.766;9.176;2022-08-05T02:22:27;98025.75;;;26.28;47.59
49611;BME280;35515;48.766;9.176;2022-08-05T02:24:57;98030.63;;;26.14;47.96
49611;BME280;35515;48.766;9.176;2022-08-05T02:27:27;98037.09;;;26.09;48.11
49611;BME280;35515;48.766;9.176;2022-08-05T02:29:59;98039.88;;;26.09;48.18
49611;BME280;35515;48.766;9.176;2022-08-05T02:32:28;98034.97;;;26.06;48.44
49611;BME280;35515;48.766;9.176;2022-08-05T02:34:56;98034.84;;;26.11;48.15
49611;BME280;35515;48.766;9.176;2022-08-05T02:37:24;98037.53;;;26.02;48.47
49611;BME280;35515;48.766;9.176;2022-08-05T02:39:52;98033.41;;;26.23;48.10
49611;BME280;35515;48.766;9.176;2022-08-05T02:42:19;98038.50;;;25.98;48.91
49611;BME280;35515;48.766;9.176;2022-08-05T02:44:47;98035.53;;;26.26;48.36
49611;BME280;35515;48.766;9.176;2022-08-05T02:47:17;98038.38;;;26.03;48.76
49611;BME280;35515;48.766;9.176;2022-08-05T02:49:44;98038.63;;;26.15;48.49
49611;BME280;35515;48.766;9.176;2022-08-05T02:52:14;98038.00;;;25.96;49.22
49611;BME280;35515;48.766;9.176;2022-08-05T02:54:42;98036.94;;;25.83;49.30
49611;BME280;35515;48.766;9.176;2022-08-05T02:57:12;98043.19;;;25.89;49.52
49611;BME280;35515;48.766;9.176;2022-08-05T02:59:41;98039.34;;;25.76;49.96
49611;BME280;35515;48.766;9.176;2022-08-05T03:02:08;98036.06;;;25.74;49.86
49611;BME280;35515;48.766;9.176;2022-08-05T03:04:37;98037.56;;;25.80;49.79
49611;BME280;35515;48.766;9.176;2022-08-05T03:07:05;98043.25;;;25.75;50.47
49611;BME280;35515;48.766;9.176;2022-08-05T03:09:32;98046.78;;;25.66;50.81
49611;BME280;35515;48.766;9.176;2022-08-05T03:11:59;98056.22;;;25.65;50.95
49611;BME280;35515;48.766;9.176;2022-08-05T03:14:25;98066.84;;;25.63;50.50
49611;BME280;35515;48.766;9.176;2022-08-05T03:16:52;98077.63;;;25.65;50.62
49611;BME280;35515;48.766;9.176;2022-08-05T03:19:19;98065.41;;;25.66;50.52
49611;BME280;35515;48.766;9.176;2022-08-05T03:21:46;98063.75;;;25.65;50.56
49611;BME280;35515;48.766;9.176;2022-08-05T03:24:13;98075.31;;;25.67;50.70
49611;BME280;35515;48.766;9.176;2022-08-05T03:26:41;98074.53;;;25.66;50.72
49611;BME280;35515;48.766;9.176;2022-08-05T03:29:07;98075.78;;;25.60;50.84
49611;BME280;35515;48.766;9.176;2022-08-05T03:31:34;98084.66;;;25.48;51.30
49611;BME280;35515;48.766;9.176;2022-08-05T03:34:01;98077.09;;;25.63;51.12
49611;BME280;35515;48.766;9.176;2022-08-05T03:36:29;98076.03;;;25.73;50.45
49611;BME280;35515;48.766;9.176;2022-08-05T03:39:05;98082.53;;;25.68;51.18
49611;BME280;35515;48.766;9.176;2022-08-05T03:41:32;98070.06;;;25.57;51.81
49611;BME280;35515;48.766;9.176;2022-08-05T03:43:59;98069.66;;;25.49;51.75
49611;BME280;35515;48.766;9.176;2022-08-05T03:46:25;98073.75;;;25.52;51.64
49611;BME280;35515;48.766;9.176;2022-08-05T03:48:52;98078.53;;;25.37;52.12
49611;BME280;35515;48.766;9.176;2022-08-05T03:51:21;98071.38;;;25.36;52.23
49611;BME280;35515;48.766;9.176;2022-08-05T03:53:54;98067.44;;;25.37;51.97
49611;BME280;35515;48.766;9.176;2022-08-05T03:56:27;98041.75;;;25.32;52.39
49611;BME280;35515;48.766;9.176;2022-08-05T03:58:57;98035.44;;;25.17;52.87
49611;BME280;35515;48.766;9.176;2022-08-05T04:01:27;98034.69;;;25.26;52.48
49611;BME280;35515;48.766;9.176;2022-08-05T04:03:54;98037.13;;;25.41;52.40
49611;BME280;35515;48.766;9.176;2022-08-05T04:06:22;98051.47;;;25.20;53.28
49611;BME280;35515;48.766;9.176;2022-08-05T04:08:49;98059.56;;;25.17;53.32
49611;BME280;35515;48.766;9.176;2022-08-05T04:11:17;98058.81;;;25.25;53.35
49611;BME280;35515;48.766;9.176;2022-08-05T04:13:45;98058.16;;;25.06;53.70
49611;BME280;35515;48.766;9.176;2022-08-05T04:16:12;98067.63;;;25.04;53.83
49611;BME280;35515;48.766;9.176;2022-08-05T04:18:39;98073.81;;;25.24;52.88
49611;BME280;35515;48.766;9.176;2022-08-05T04:21:06;98066.81;;;25.27;53.04
49611;BME280;35515;48.766;9.176;2022-08-05T04:23:34;98069.56;;;25.04;53.61
49611;BME280;35515;48.766;9.176;2022-08-05T04:26:01;98084.56;;;24.89;54.46
49611;BME280;35515;48.766;9.176;2022-08-05T04:28:27;98090.31;;;24.93;54.48
49611;BME280;35515;48.766;9.176;2022-08-05T04:30:55;98106.53;;;24.85;55.01
49611;BME280;35515;48.766;9.176;2022-08-05T04:33:22;98131.75;;;24.84;55.34
49611;BME280;35515;48.766;9.176;2022-08-05T04:35:48;98139.44;;;24.87;55.24
49611;BME280;35515;48.766;9.176;2022-08-05T04:38:15;98137.81;;;24.72;54.98
49611;BME280;35515;48.766;9.176;2022-08-05T04:40:42;98154.53;;;24.95;54.16
49611;BME280;35515;48.766;9.176;2022-08-05T04:43:08;98162.44;;;25.01;53.95
49611;BME280;35515;48.766;9.176;2022-08-05T04:45:35;98172.91;;;25.04;54.30
49611;BME280;35515;48.766;9.176;2022-08-05T04:48:05;98174.03;;;25.17;53.44
49611;BME280;35515;48.766;9.176;2022-08-05T04:50:37;98179.38;;;25.14;53.38
49611;BME280;35515;48.766;9.176;2022-08-05T04:53:04;98197.66;;;25.01;53.89
49611;BME280;35515;48.766;9.176;2022-08-05T04:55:31;98201.34;;;24.82;54.94
49611;BME280;35515;48.766;9.176;2022-08-05T04:57:57;98188.78;;;24.71;55.18
49611;BME280;35515;48.766;9.176;2022-08-05T05:00:24;98180.88;;;24.64;55.29
49611;BME280;35515;48.766;9.176;2022-08-05T05:02:51;98206.06;;;24.96;54.50
49611;BME280;35515;48.766;9.176;2022-08-05T05:05:18;98245.44;;;24.79;55.12
49611;BME280;35515;48.766;9.176;2022-08-05T05:07:45;98262.69;;;24.90;55.05
49611;BME280;35515;48.766;9.176;2022-08-05T05:10:12;98271.06;;;24.70;56.26
49611;BME280;35515;48.766;9.176;2022-08-05T05:12:38;98272.72;;;24.72;55.53
49611;BME280;35515;48.766;9.176;2022-08-05T05:15:05;98275.81;;;24.84;55.19
49611;BME280;35515;48.766;9.176;2022-08-05T05:17:36;98261.56;;;24.91;55.02
49611;BME280;35515;48.766;9.176;2022-08-05T05:20:04;98266.06;;;24.86;55.11
49611;BME280;35515;48.766;9.176;2022-08-05T05:22:32;98262.09;;;24.93;55.04
49611;BME280;35515;48.766;9.176;2022-08-05T05:24:59;98273.38;;;24.96;55.02
49611;BME280;35515;48.766;9.176;2022-08-05T05:27:25;98282.53;;;24.97;54.98
49611;BME280;35515;48.766;9.176;2022-08-05T05:29:52;98280.47;;;24.89;55.23
49611;BME280;35515;48.766;9.176;2022-08-05T05:32:19;98282.03;;;25.09;54.58
49611;BME280;35515;48.766;9.176;2022-08-05T05:34:45;98276.78;;;25.07;54.47
49611;BME280;35515;48.766;9.176;2022-08-05T05:37:12;98284.66;;;25.00;55.08
49611;BME280;35515;48.766;9.176;2022-08-05T05:39:40;98279.13;;;25.00;54.83
49611;BME280;35515;48.766;9.176;2022-08-05T05:42:07;98290.25;;;25.14;54.70
49611;BME280;35515;48.766;9.176;2022-08-05T05:44:34;98305.84;;;25.24;54.32
49611;BME280;35515;48.766;9.176;2022-08-05T05:47:01;98304.53;;;25.35;53.84
49611;BME280;35515;48.766;9.176;2022-08-05T05:49:27;98310.78;;;25.27;54.46
49611;BME280;35515;48.766;9.176;2022-08-05T05:51:54;98314.50;;;25.36;54.43
49611;BME280;35515;48.766;9.176;2022-08-05T05:54:21;98315.72;;;25.30;54.69
49611;BME280;35515;48.766;9.176;2022-08-05T05:56:49;98322.97;;;25.26;54.44
49611;BME280;35515;48.766;9.176;2022-08-05T05:59:16;98326.63;;;25.40;54.55
49611;BME280;35515;48.766;9.176;2022-08-05T06:01:42;98331.97;;;25.50;53.92
49611;BME280;35515;48.766;9.176;2022-08-05T06:04:11;98332.06;;;25.45;54.07
49611;BME280;35515;48.766;9.176;2022-08-05T06:06:38;98338.75;;;25.44;53.67
49611;BME280;35515;48.766;9.176;2022-08-05T06:09:05;98345.31;;;25.48;53.17
49611;BME280;35515;48.766;9.176;2022-08-05T06:11:32;98338.84;;;25.67;52.94
49611;BME280;35515;48.766;9.176;2022-08-05T06:14:00;98339.38;;;25.69;52.65
49611;BME280;35515;48.766;9.176;2022-08-05T06:16:27;98340.50;;;25.40;53.62
49611;BME280;35515;48.766;9.176;2022-08-05T06:18:53;98327.25;;;25.65;52.40
49611;BME280;35515;48.766;9.176;2022-08-05T06:21:20;98320.25;;;25.53;52.80
49611;BME280;35515;48.766;9.176;2022-08-05T06:23:46;98312.03;;;25.48;53.31
49611;BME280;35515;48.766;9.176;2022-08-05T06:26:13;98308.97;;;25.36;53.59
49611;BME280;35515;48.766;9.176;2022-08-05T06:28:40;98310.63;;;25.37;53.44
49611;BME280;35515;48.766;9.176;2022-08-05T06:31:07;98314.41;;;25.55;53.04
49611;BME280;35515;48.766;9.176;2022-08-05T06:33:34;98319.88;;;25.46;53.28
49611;BME280;35515;48.766;9.176;2022-08-05T06:36:00;98308.97;;;25.64;53.00
49611;BME280;35515;48.766;9.176;2022-08-05T06:38:27;98313.28;;;25.42;52.98
49611;BME280;35515;48.766;9.176;2022-08-05T06:40:54;98313.88;;;25.39;53.38
49611;BME280;35515;48.766;9.176;2022-08-05T06:43:20;98308.34;;;25.39;53.17
49611;BME280;35515;48.766;9.176;2022-08-05T06:45:47;98310.81;;;25.54;52.56
49611;BME280;35515;48.766;9.176;2022-08-05T06:48:15;98311.09;;;25.67;52.20
49611;BME280;35515;48.766;9.176;2022-08-05T06:50:41;98304.16;;;25.56;52.67
49611;BME280;35515;48.766;9.176;2022-08-05T06:53:08;98308.84;;;25.69;52.53
49611;BME280;35515;48.766;9.176;2022-08-05T06:55:34;98316.75;;;25.76;52.27
49611;BME280;35515;48.766;9.176;2022-08-05T06:58:01;98308.06;;;25.68;51.86
49611;BME280;35515;48.766;9.176;2022-08-05T07:00:27;98313.38;;;25.65;51.89
49611;BME280;35515;48.766;9.176;2022-08-05T07:02:55;98314.72;;;25.53;51.45
49611;BME280;35515;48.766;9.176;2022-08-05T07:05:24;98322.31;;;25.62;51.65
49611;BME280;35515;48.766;9.176;2022-08-05T07:07:50;98331.97;;;25.78;51.31
49611;BME280;35515;48.766;9.176;2022-08-05T07:10:17;98332.81;;;25.65;51.58
49611;BME280;35515;48.766;9.176;2022-08-05T07:12:43;98343.28;;;25.68;50.47
49611;BME280;35515;48.766;9.176;2022-08-05T07:15:27;98351.69;;;25.91;49.58
49611;BME280;35515;48.766;9.176;2022-08-05T07:18:11;98357.03;;;25.73;50.19
49611;BME280;35515;48.766;9.176;2022-08-05T07:20:39;98348.91;;;25.91;49.70
49611;BME280;35515;48.766;9.176;2022-08-05T07:23:06;98355.28;;;26.05;49.86
49611;BME280;35515;48.766;9.176;2022-08-05T07:25:33;98361.75;;;25.86;49.77
49611;BME280;35515;48.766;9.176;2022-08-05T07:27:59;98358.88;;;25.78;50.20
49611;BME280;35515;48.766;9.176;2022-08-05T07:30:26;98364.44;;;26.06;49.46
49611;BME280;35515;48.766;9.176;2022-08-05T07:32:52;98367.09;;;25.97;49.76
49611;BME280;35515;48.766;9.176;2022-08-05T07:35:19;98370.47;;;25.94;49.66
49611;BME280;35515;48.766;9.176;2022-08-05T07:37:47;98375.75;;;25.95;49.73
49611;BME280;35515;48.766;9.176;2022-08-05T07:40:13;98369.06;;;26.10;48.96
49611;BME280;35515;48.766;9.176;2022-08-05T07:42:40;98363.78;;;26.23;48.36
49611;BME280;35515;48.766;9.176;2022-08-05T07:45:08;98365.44;;;25.96;49.86
49611;BME280;35515;48.766;9.176;2022-08-05T07:47:35;98372.75;;;26.19;49.08
49611;BME280;35515;48.766;9.176;2022-08-05T07:50:01;98368.75;;;26.12;48.49
49611;BME280;35515;48.766;9.176;2022-08-05T07:52:28;98370.50;;;26.08;48.61
49611;BME280;35515;48.766;9.176;2022-08-05T07:54:56;98366.34;;;26.33;46.51
49611;BME280;35515;48.766;9.176;2022-08-05T07:57:22;98368.47;;;26.36;46.08
49611;BME280;35515;48.766;9.176;2022-08-05T07:59:49;98370.34;;;26.41;46.05
49611;BME280;35515;48.766;9.176;2022-08-05T08:02:16;98376.78;;;26.50;44.92
49611;BME280;35515;48.766;9.176;2022-08-05T08:04:46;98377.50;;;26.42;45.31
49611;BME280;35515;48.766;9.176;2022-08-05T08:07:13;98369.94;;;26.33;45.34
49611;BME280;35515;48.766;9.176;2022-08-05T08:09:40;98364.44;;;26.19;46.30
49611;BME280;35515;48.766;9.176;2022-08-05T08:12:08;98375.19;;;26.58;43.88
49611;BME280;35515;48.766;9.176;2022-08-05T08:14:35;98374.81;;;26.50;43.85
49611;BME280;35515;48.766;9.176;2022-08-05T08:17:01;98366.59;;;26.45;44.27
49611;BME280;35515;48.766;9.176;2022-08-05T08:19:28;98368.47;;;26.50;43.68
49611;BME280;35515;48.766;9.176;2022-08-05T08:21:54;98376.66;;;26.55;43.92
49611;BME280;35515;48.766;9.176;2022-08-05T08:24:21;98364.94;;;26.58;43.60
49611;BME280;35515;48.766;9.176;2022-08-05T08:26:47;98368.78;;;26.71;42.97
49611;BME280;35515;48.766;9.176;2022-08-05T08:29:16;98366.00;;;26.94;42.43
49611;BME280;35515;48.766;9.176;2022-08-05T08:31:42;98372.47;;;26.80;42.70
49611;BME280;35515;48.766;9.176;2022-08-05T08:34:09;98363.00;;;26.81;43.03
49611;BME280;35515;48.766;9.176;2022-08-05T08:36:35;98361.06;;;26.82;42.99
49611;BME280;35515;48.766;9.176;2022-08-05T08:39:02;98363.38;;;26.89;42.54
49611;BME280;35515;48.766;9.176;2022-08-05T08:41:30;98355.94;;;26.98;42.38
49611;BME280;35515;48.766;9.176;2022-08-05T08:43:59;98356.94;;;26.79;42.62
49611;BME280;35515;48.766;9.176;2022-08-05T08:46:30;98338.81;;;26.82;42.76
49611;BME280;35515;48.766;9.176;2022-08-05T08:48:57;98337.50;;;26.79;43.28
49611;BME280;35515;48.766;9.176;2022-08-05T08:51:26;98323.97;;;26.86;43.69
49611;BME280;35515;48.766;9.176;2022-08-05T08:53:55;98318.03;;;27.02;42.23
49611;BME280;35515;48.766;9.176;2022-08-05T08:56:22;98312.63;;;27.06;42.39
49611;BME280;35515;48.766;9.176;2022-08-05T08:58:49;98325.44;;;27.15;41.88
49611;BME280;35515;48.766;9.176;2022-08-05T09:01:16;98305.53;;;27.22;41.83
49611;BME280;35515;48.766;9.176;2022-08-05T09:03:47;98326.44;;;27.19;41.42
49611;BME280;35515;48.766;9.176;2022-08-05T09:06:13;98321.66;;;27.11;41.41
49611;BME280;35515;48.766;9.176;2022-08-05T09:08:40;98313.19;;;27.16;41.87
49611;BME280;35515;48.766;9.176;2022-08-05T09:11:07;98306.47;;;27.17;41.70
49611;BME280;35515;48.766;9.176;2022-08-05T09:13:35;98305.34;;;27.18;41.74
49611;BME280;35515;48.766;9.176;2022-08-05T09:16:02;98298.00;;;27.23;42.06
49611;BME280;35515;48.766;9.176;2022-08-05T09:18:29;98291.72;;;27.40;40.96
49611;BME280;35515;48.766;9.176;2022-08-05T09:20:56;98288.72;;;27.36;40.78
49611;BME280;35515;48.766;9.176;2022-08-05T09:23:23;98288.00;;;27.22;40.55
49611;BME280;35515;48.766;9.176;2022-08-05T09:25:51;98285.72;;;27.24;40.89
49611;BME280;35515;48.766;9.176;2022-08-05T09:28:20;98283.28;;;27.22;40.65
49611;BME280;35515;48.766;9.176;2022-08-05T09:30:54;98279.97;;;27.51;39.86
49611;BME280;35515;48.766;9.176;2022-08-05T09:33:22;98273.16;;;27.75;38.87
49611;BME280;35515;48.766;9.176;2022-08-05T09:35:58;98282.16;;;27.72;38.74
49611;BME280;35515;48.766;9.176;2022-08-05T09:38:25;98274.97;;;27.71;38.31
49611;BME280;35515;48.766;9.176;2022-08-05T09:40:52;98265.97;;;27.74;39.01
49611;BME280;35515;48.766;9.176;2022-08-05T09:43:30;98260.38;;;27.74;38.44
49611;BME280;35515;48.766;9.176;2022-08-05T09:45:57;98259.72;;;27.77;38.36
49611;BME280;35515;48.766;9.176;2022-08-05T09:48:25;98262.38;;;28.00;38.60
49611;BME280;35515;48.766;9.176;2022-08-05T09:50:55;98258.78;;;27.91;38.75
49611;BME280;35515;48.766;9.176;2022-08-05T09:53:24;98261.41;;;27.96;38.68
49611;BME280;35515;48.766;9.176;2022-08-05T09:55:52;98263.19;;;27.92;39.16
49611;BME280;35515;48.766;9.176;2022-08-05T09:58:19;98263.91;;;28.06;38.67
49611;BME280;35515;48.766;9.176;2022-08-05T10:00:58;98268.63;;;28.06;38.14
49611;BME280;35515;48.766;9.176;2022-08-05T10:03:25;98264.88;;;28.01;38.57
49611;BME280;35515;48.766;9.176;2022-08-05T10:06:03;98265.34;;;28.12;38.28
49611;BME280;35515;48.766;9.176;2022-08-05T10:08:32;98267.66;;;28.10;38.45
49611;BME280;35515;48.766;9.176;2022-08-05T10:10:58;98255.84;;;28.13;38.10
49611;BME280;35515;48.766;9.176;2022-08-05T10:13:30;98255.69;;;28.36;37.39
49611;BME280;35515;48.766;9.176;2022-08-05T10:15:57;98255.19;;;28.69;36.95
49611;BME280;35515;48.766;9.176;2022-08-05T10:18:25;98258.31;;;28.67;36.70
49611;BME280;35515;48.766;9.176;2022-08-05T10:20:54;98249.44;;;28.48;36.89
49611;BME280;35515;48.766;9.176;2022-08-05T10:23:22;98252.25;;;28.30;37.58
49611;BME280;35515;48.766;9.176;2022-08-05T10:25:51;98245.69;;;28.70;36.87
49611;BME280;35515;48.766;9.176;2022-08-05T10:28:20;98245.00;;;28.64;36.81
49611;BME280;35515;48.766;9.176;2022-08-05T10:30:47;98244.72;;;28.66;36.35
49611;BME280;35515;48.766;9.176;2022-08-05T10:33:14;98239.75;;;28.63;36.54
49611;BME280;35515;48.766;9.176;2022-08-05T10:35:40;98240.41;;;28.60;36.71
49611;BME280;35515;48.766;9.176;2022-08-05T10:38:07;98233.38;;;28.71;36.57
49611;BME280;35515;48.766;9.176;2022-08-05T10:40:38;98238.47;;;28.69;36.88
49611;BME280;35515;48.766;9.176;2022-08-05T10:43:13;98233.84;;;28.73;36.56
49611;BME280;35515;48.766;9.176;2022-08-05T10:45:54;98237.13;;;28.58;36.66
49611;BME280;35515;48.766;9.176;2022-08-05T10:48:31;98241.25;;;28.69;36.36
49611;BME280;35515;48.766;9.176;2022-08-05T10:51:00;98233.56;;;28.66;36.65
49611;BME280;35515;48.766;9.176;2022-08-05T10:53:42;98229.25;;;28.77;36.18
49611;BME280;35515;48.766;9.176;2022-08-05T10:56:12;98226.56;;;28.90;36.65
49611;BME280;35515;48.766;9.176;2022-08-05T10:59:05;98223.78;;;28.98;36.61
49611;BME280;35515;48.766;9.176;2022-08-05T11:01:33;98223.09;;;29.01;35.99
49611;BME280;35515;48.766;9.176;2022-08-05T11:04:06;98224.91;;;29.06;36.24
49611;BME280;35515;48.766;9.176;2022-08-05T11:06:34;98237.47;;;29.12;36.76
49611;BME280;35515;48.766;9.176;2022-08-05T11:09:18;98234.84;;;29.16;35.88
49611;BME280;35515;48.766;9.176;2022-08-05T11:11:45;98230.91;;;29.17;35.90
49611;BME280;35515;48.766;9.176;2022-08-05T11:14:22;98234.31;;;29.23;35.80
49611;BME280;35515;48.766;9.176;2022-08-05T11:19:54;98227.97;;;29.52;35.38
49611;BME280;35515;48.766;9.176;2022-08-05T11:22:40;98240.16;;;29.47;35.50
49611;BME280;35515;48.766;9.176;2022-08-05T11:25:27;98232.94;;;29.46;35.38
49611;BME280;35515;48.766;9.176;2022-08-05T11:27:54;98237.16;;;29.52;35.72
49611;BME280;35515;48.766;9.176;2022-08-05T11:30:22;98233.84;;;29.59;35.47
49611;BME280;35515;48.766;9.176;2022-08-05T11:32:48;98235.69;;;29.55;35.72
49611;BME280;35515;48.766;9.176;2022-08-05T11:35:52;98239.50;;;29.72;34.94
49611;BME280;35515;48.766;9.176;2022-08-05T11:38:50;98239.00;;;29.69;34.96
49611;BME280;35515;48.766;9.176;2022-08-05T11:41:20;98239.97;;;29.74;34.80
49611;BME280;35515;48.766;9.176;2022-08-05T11:43:57;98233.66;;;29.64;34.81
49611;BME280;35515;48.766;9.176;2022-08-05T11:46:26;98230.22;;;29.59;34.85
49611;BME280;35515;48.766;9.176;2022-08-05T11:48:53;98231.66;;;29.65;34.68
49611;BME280;35515;48.766;9.176;2022-08-05T11:51:20;98225.94;;;29.61;34.67
49611;BME280;35515;48.766;9.176;2022-08-05T11:53:47;98228.56;;;29.58;34.86
49611;BME280;35515;48.766;9.176;2022-08-05T11:56:14;98223.69;;;29.55;34.99
49611;BME280;35515;48.766;9.176;2022-08-05T11:58:42;98223.22;;;29.52;35.27
49611;BME280;35515;48.766;9.176;2022-08-05T12:01:11;98228.88;;;29.65;35.16
49611;BME280;35515;48.766;9.176;2022-08-05T12:03:44;98213.50;;;29.80;35.05
49611;BME280;35515;48.766;9.176;2022-08-05T12:06:12;98219.22;;;29.83;35.73
49611;BME280;35515;48.766;9.176;2022-08-05T12:08:41;98218.28;;;29.79;35.71
49611;BME280;35515;48.766;9.176;2022-08-05T12:11:09;98225.78;;;29.88;35.52
49611;BME280;35515;48.766;9.176;2022-08-05T12:13:37;98217.94;;;29.81;35.74
49611;BME280;35515;48.766;9.176;2022-08-05T12:16:05;98210.47;;;29.94;35.69
49611;BME280;35515;48.766;9.176;2022-08-05T12:18:33;98215.00;;;29.77;35.88
49611;BME280;35515;48.766;9.176;2022-08-05T12:21:12;98206.16;;;29.75;36.19
49611;BME280;35515;48.766;9.176;2022-08-05T12:23:39;98206.69;;;29.90;35.65
49611;BME280;35515;48.766;9.176;2022-08-05T12:26:05;98205.91;;;29.89;35.59
49611;BME280;35515;48.766;9.176;2022-08-05T12:28:33;98201.97;;;29.81;36.15
49611;BME280;35515;48.766;9.176;2022-08-05T12:31:01;98217.13;;;29.80;35.79
49611;BME280;35515;48.766;9.176;2022-08-05T12:33:27;98207.00;;;29.97;35.61
49611;BME280;35515;48.766;9.176;2022-08-05T12:35:55;98212.97;;;29.87;35.73
49611;BME280;35515;48.766;9.176;2022-08-05T12:38:23;98210.34;;;29.81;35.71
49611;BME280;35515;48.766;9.176;2022-08-05T12:40:50;98204.91;;;29.85;35.57
49611;BME280;35515;48.766;9.176;2022-08-05T12:43:18;98200.41;;;29.72;36.21
49611;BME280;35515;48.766;9.176;2022-08-05T12:45:51;98205.06;;;29.67;36.34
49611;BME280;35515;48.766;9.176;2022-08-05T12:48:18;98204.91;;;29.64;36.35
49611;BME280;35515;48.766;9.176;2022-08-05T12:51:10;98194.09;;;29.62;36.42
49611;BME280;35515;48.766;9.176;2022-08-05T12:53:41;98190.75;;;29.69;36.58
49611;BME280;35515;48.766;9.176;2022-08-05T12:56:16;98193.88;;;29.67;36.60
49611;BME280;35515;48.766;9.176;2022-08-05T12:58:43;98193.34;;;29.74;36.42
49611;BME280;35515;48.766;9.176;2022-08-05T13:01:13;98195.94;;;29.79;36.16
49611;BME280;35515;48.766;9.176;2022-08-05T13:03:39;98185.47;;;29.97;35.73
49611;BME280;35515;48.766;9.176;2022-08-05T13:06:06;98191.88;;;29.98;35.87
49611;BME280;35515;48.766;9.176;2022-08-05T13:08:36;98189.41;;;29.96;35.97
49611;BME280;35515;48.766;9.176;2022-08-05T13:11:05;98195.53;;;29.90;35.83